Hammond, OR

9:10 PM PDT on September 02, 2014 (GMT -0700)
Warrenton, Oregon | Change Station
CLOSE
Current Station
Personal Weather Station
Location: Warrenton, OR
Elevation: 60 ft
Nearby Weather Stations

Elev 60 ft 46.16 °N, 123.95 °W | Updated 8 minutes ago

Partly Cloudy
Partly Cloudy
68.8 °F
Feels Like 68.8 °F
N
0.0
Wind Variable Wind from North
Gusts 0.0 mph

Today
High -- | Low -- °F
--% Chance of Precip.
Yesterday
High -- | Low -- °F
Precip. -- in
6:37 AM 7:52 PM
First Quarter, 58% visible
Pressure 29.97 in
Visibility 10.0 miles
Clouds Few 3200 ft
Dew Point -15 °F
Humidity 3%
Rainfall 0.00 in
Snow Depth Not available.
UV 0 out of 12
Pollen 2.90 out of 12
Air Quality Not available.
Flu Activity Not available.
METAR KAST 030355Z AUTO 29011KT 10SM FEW032 15/12 A2997 RMK AO2 SLP149 T01500117

More Conditions Fewer Conditions

Pressure 29.97 in
Visibility 10.0 miles
Clouds Few 3200 ft
Dew Point -15 °F
Humidity 3%
Rainfall 0.00 in
Snow Depth Not available.
UV 0 out of 12
Pollen 2.90 out of 12
Air Quality Not available.
Flu Activity Not available.
METAR KAST 030355Z AUTO 29011KT 10SM FEW032 15/12 A2997 RMK AO2 SLP149 T01500117

More Conditions Fewer Conditions

10-Day Weather Forecast

Almanac

Astronomy

Sep. 02, 2014 Rise Set
Actual Time 6:37 AM PDT 7:52 PM PDT
Civil Twilight 6:06 AM PDT 8:23 PM PDT
Nautical Twilight 5:29 AM PDT 9:00 PM PDT
Astronomical Twilight 4:49 AM PDT 9:39 PM PDT
Moon 2:51 PM PDT (9/2) No Moon Set
Length of Visible Light 14h 16m
Length of Day
13h 14m
Tomorrow will be 3m 10s shorter.
First Quarter, 58% of the Moon is Illuminated
Sep 3
First Quarter
Sep 8
Full
Sep 15
Last Quarter
Sep 24
New
Oct 1
First Quarter

Today's Extremes

State Highs State Lows

Community

WunderPhotos

Upload Photos

1,749,868 photos uploaded!

Nearby

Snow Depth

Station Depth Elevation
Seine Creek 0 in 2000 ft
North Fork 1 in 3120 ft
Blazed Alder 0 in 3650 ft
Greenpoint 1 in 3200 ft
Red Hill 0 in 4400 ft

Earthquake Activity

City Distance Mag. Time & Date
No recent earthquake activity has been reported nearby.
Minimum magnitude displayed is 2.5.

Coastal Water Temperatures

Place Temperature
Astoria, OR 68.0 °F
Westport, WA 60.1 °F

Nearby Weather Stations